• Join FlightAware (Why Join?)
  • Login
  • US Flag 
07:40PM EST


 

Airport Tracker/Info


-or-


 

Live Flight TrackerFlight Track Log ✈ SWA1969 ✈ 16-Apr-2013 ✈ KMDW - KPHX

Flight Track Log - Related Links

Times and Time Zones

All times are in EDT time to prevent confusion due to time zone crossing. See the SWA1969 flight status page for this flight to view local times or setup timezone preferences in your user account.

Time Position Orientation Groundspeed Altitude Reporting Facility
EDT Latitude Longitude Course Direction KTS MPH feet Rate Location/Type
01:21PM 41.7500 -87.8167 270° West 185 213 2,700  Level Chicago TRACON
01:22PM 41.7500 -87.9000 270° West 231 266 5,400 2,280 Climbing Chicago TRACON
01:22PM 41.7583 -87.9300 290° West 233 268 6,200 2,640 Climbing Chicago Center
01:23PM 41.7847 -88.0181 292° West 251 289 9,500 2,820 Climbing Chicago Center
01:24PM 41.7847 -88.1247 270° West 240 276 12,000 2,100 Climbing Chicago Center
01:25PM 41.7831 -88.2153 269° West 245 282 13,900 1,080 Climbing Chicago Center
01:26PM 41.7689 -88.3058 258° West 251 289 14,300 1,020 Climbing Chicago Center
01:27PM 41.7511 -88.4036 256° West 270 311 16,100 1,980 Climbing Chicago Center
01:29PM 41.7314 -88.5086 256° West 290 334 18,400 2,340 Climbing Chicago Center
01:30PM 41.7081 -88.6375 256° West 300 345 21,000 2,220 Climbing Chicago Center
01:31PM 41.6858 -88.7464 255° West 305 351 23,100 1,800 Climbing Chicago Center
01:32PM 41.6631 -88.8597 255° West 313 360 24,700 960 Climbing Chicago Center
01:33PM 41.6381 -88.9797 254° West 331 381 25,100 900 Climbing Chicago Center
01:34PM 41.6142 -89.1158 257° West 372 428 26,600 1,200 Climbing Chicago Center
01:35PM 41.5875 -89.2775 258° West 377 434 27,600 900 Climbing Chicago Center
01:36PM 41.5569 -89.4233 254° West 401 461 28,500 960 Climbing Chicago Center
01:37PM 41.5322 -89.5586 256° West 405 466 29,700 1,200 Climbing Chicago Center
01:38PM 41.5036 -89.7064 256° West 412 474 31,000 1,200 Climbing Chicago Center
01:39PM 41.4764 -89.8500 256° West 405 466 32,200 1,260 Climbing Chicago Center
01:40PM 41.4436 -90.0219 256° West 403 464 33,700 840 Climbing Chicago Center
01:41PM 41.4156 -90.1639 255° West 399 459 34,000 120 Climbing Chicago Center
01:42PM 41.3878 -90.3050 255° West 398 458 34,000  Level Chicago Center
01:43PM 41.3606 -90.4456 256° West 396 456 34,000  Level Chicago Center
01:44PM 41.3325 -90.5869 255° West 396 456 34,000  Level Chicago Center
01:45PM 41.2958 -90.7256 251° West 397 457 34,000 300 Level Chicago Center
01:46PM 41.2483 -90.8856 248° West 391 450 34,700 780 Climbing Chicago Center
01:47PM 41.2094 -91.0169 249° West 385 443 35,700 600 Climbing Chicago Center
01:48PM 41.1706 -91.1483 249° West 384 442 36,000 120 Climbing Chicago Center
01:49PM 41.1314 -91.2825 249° West 389 448 36,000  Level Chicago Center
01:50PM 41.0903 -91.4158 248° West 390 449 36,000  Level Chicago Center
01:51PM 41.0506 -91.5489 248° West 390 449 36,000  Level Chicago Center
01:52PM 41.0047 -91.6961 248° West 388 447 36,000  Level Chicago Center
01:53PM 40.9650 -91.8281 248° West 388 447 36,000  Level Chicago Center
01:54PM 40.9250 -91.9572 248° West 386 444 36,000  Level Chicago Center
01:55PM 40.8853 -92.0872 248° West 384 442 36,000  Level Chicago Center
01:56PM 40.8375 -92.2403 248° West 380 437 36,000  Level Chicago Center
01:57PM 40.7983 -92.3681 248° West 380 437 36,000  Level Chicago Center
01:58PM 40.7586 -92.4950 248° West 379 436 36,000  Level Chicago Center
01:59PM 40.7192 -92.6214 248° West 378 435 36,000  Level Chicago Center
02:00PM 40.6792 -92.7475 247° West 379 436 36,000  Level Chicago Center
02:01PM 40.6308 -92.8986 247° West 379 436 36,000  Level Chicago Center
02:02PM 40.6056 -92.9739 246° West 379 436 36,000  Level Kansas City Center
02:03PM 40.5667 -93.0981 248° West 374 430 36,000  Level Kansas City Center
02:04PM 40.5267 -93.2233 247° West 376 433 36,000  Level Kansas City Center
02:05PM 40.4853 -93.3489 247° West 378 435 36,000  Level Kansas City Center
02:06PM 40.4375 -93.5006 248° West 378 435 36,000  Level Kansas City Center
02:07PM 40.3953 -93.6256 246° West 378 435 36,000  Level Kansas City Center
02:08PM 40.3536 -93.7508 246° West 378 435 36,000  Level Kansas City Center
02:09PM 40.3119 -93.8781 247° West 381 438 36,000  Level Kansas City Center
02:10PM 40.2700 -94.0042 246° West 382 440 36,000  Level Kansas City Center
02:11PM 40.2247 -94.1467 247° West 380 437 36,000  Level Kansas City Center
02:12PM 40.1706 -94.2575 237° Southwest 381 438 36,000  Level Kansas City Center
02:13PM 40.0983 -94.3794 232° Southwest 379 436 36,000  Level Kansas City Center
02:14PM 40.0367 -94.4844 233° Southwest 380 437 36,000  Level Kansas City Center
02:15PM 39.9636 -94.6061 232° Southwest 381 438 36,000  Level Kansas City Center
02:17PM 39.9017 -94.7103 232° Southwest 382 440 36,000  Level Kansas City Center
02:18PM 39.8294 -94.8331 233° Southwest 381 438 36,000  Level Kansas City Center
02:19PM 39.7661 -94.9361 231° Southwest 383 441 36,000  Level Kansas City Center
02:20PM 39.7039 -95.0403 232° Southwest 382 440 36,000  Level Kansas City Center
02:21PM 39.6317 -95.1600 232° Southwest 379 436 36,000  Level Kansas City Center
02:22PM 39.5689 -95.2639 232° Southwest 383 441 36,000  Level Kansas City Center
02:23PM 39.4922 -95.3886 231° Southwest 382 440 36,000  Level Kansas City Center
02:24PM 39.4325 -95.4861 232° Southwest 384 442 36,000  Level Kansas City Center
02:25PM 39.3589 -95.6067 232° Southwest 385 443 36,000  Level Kansas City Center
02:26PM 39.2944 -95.7097 231° Southwest 388 447 36,000  Level Kansas City Center
02:27PM 39.2197 -95.8306 231° Southwest 389 448 36,000  Level Kansas City Center
02:28PM 39.1553 -95.9342 231° Southwest 388 447 36,000  Level Kansas City Center
02:29PM 39.0808 -96.0544 231° Southwest 387 445 36,000  Level Kansas City Center
02:30PM 39.0161 -96.1569 231° Southwest 386 444 36,000  Level Kansas City Center
02:31PM 38.9369 -96.2764 230° Southwest 391 450 36,000  Level Kansas City Center
02:32PM 38.8744 -96.3814 233° Southwest 389 448 36,000  Level Kansas City Center
02:33PM 38.8050 -96.4883 230° Southwest 387 445 36,000  Level Kansas City Center
02:34PM 38.7372 -96.5967 231° Southwest 389 448 36,000  Level Kansas City Center
02:35PM 38.6692 -96.7075 232° Southwest 388 447 36,000  Level Kansas City Center
02:36PM 38.5889 -96.8347 231° Southwest 390 449 36,000  Level Kansas City Center
02:37PM 38.5208 -96.9408 231° Southwest 390 449 36,000  Level Kansas City Center
02:38PM 38.4522 -97.0481 231° Southwest 389 448 36,000  Level Kansas City Center
02:39PM 38.3833 -97.1556 231° Southwest 391 450 36,000  Level Kansas City Center
02:40PM 38.3131 -97.2636 230° Southwest 395 455 36,000  Level Kansas City Center
02:41PM 38.2433 -97.3717 231° Southwest 395 455 36,000  Level Kansas City Center
02:42PM 38.1608 -97.4944 230° Southwest 395 455 36,000  Level Kansas City Center
02:43PM 38.0883 -97.6064 231° Southwest 393 452 36,000  Level Kansas City Center
02:44PM 38.0189 -97.7119 230° Southwest 391 450 36,000  Level Kansas City Center
02:45PM 37.9461 -97.8239 231° Southwest 390 449 36,000  Level Kansas City Center
02:46PM 37.8756 -97.9292 230° Southwest 390 449 36,000  Level Kansas City Center
02:47PM 37.8050 -98.0369 230° Southwest 394 453 36,000  Level Kansas City Center
02:48PM 37.7325 -98.1469 230° Southwest 394 453 36,000  Level Kansas City Center
02:49PM 37.6611 -98.2550 230° Southwest 399 459 36,000  Level Kansas City Center
02:50PM 37.5886 -98.3631 230° Southwest 403 464 36,000  Level Kansas City Center
02:52PM 37.5167 -98.4706 230° Southwest 402 463 36,000  Level Kansas City Center
02:53PM 37.4450 -98.5764 230° Southwest 398 458 36,000  Level Kansas City Center
02:54PM 37.3731 -98.6822 229° Southwest 397 457 36,000  Level Kansas City Center
02:55PM 37.3014 -98.7883 230° Southwest 398 458 36,000  Level Kansas City Center
02:56PM 37.2144 -98.9142 229° Southwest 397 457 36,000  Level Kansas City Center
02:57PM 37.1425 -99.0192 229° Southwest 397 457 36,000  Level Kansas City Center
02:58PM 37.0722 -99.1233 230° Southwest 397 457 36,000  Level Kansas City Center
02:59PM 36.9994 -99.2292 229° Southwest 400 460 36,000  Level Kansas City Center
03:00PM 36.9267 -99.3344 229° Southwest 400 460 36,000  Level Kansas City Center
03:01PM 36.8531 -99.4400 229° Southwest 401 461 36,000  Level Kansas City Center
03:02PM 36.7656 -99.5658 229° Southwest 401 461 36,000  Level Kansas City Center
03:03PM 36.6928 -99.6708 229° Southwest 401 461 36,000  Level Kansas City Center
03:04PM 36.6200 -99.7747 229° Southwest 399 459 36,000  Level Kansas City Center
03:05PM 36.5475 -99.8794 229° Southwest 399 459 36,000  Level Kansas City Center
03:06PM 36.4747 -99.9822 229° Southwest 399 459 36,000  Level Kansas City Center
03:07PM 36.4022 -100.0850 229° Southwest 397 457 36,000  Level Kansas City Center
03:08PM 36.3289 -100.1889 229° Southwest 398 458 36,000  Level Kansas City Center
03:09PM 36.2417 -100.3117 229° Southwest 397 457 36,000  Level Kansas City Center
03:10PM 36.1683 -100.4133 228° Southwest 396 456 36,000  Level Kansas City Center
03:11PM 36.0950 -100.5167 229° Southwest 398 458 36,000  Level Kansas City Center
03:12PM 36.0211 -100.6197 228° Southwest 399 459 36,000  Level Kansas City Center
03:13PM 35.9531 -100.7481 237° Southwest 405 466 36,000  Level Kansas City Center
03:14PM 35.9417 -100.8908 264° West 421 484 36,000  Level Kansas City Center
03:15PM 35.9294 -101.0308 264° West 416 479 36,000  Level Kansas City Center
03:16PM 35.9178 -101.1728 264° West 417 480 36,000  Level Kansas City Center
03:17PM 35.9072 -101.3117 265° West 412 474 36,000  Level Kansas City Center
03:18PM 35.8947 -101.4500 264° West 410 472 36,000  Level Kansas City Center
03:19PM 35.8797 -101.6108 263° West 402 463 36,000  Level Kansas City Center
03:21PM 35.8656 -101.7686 264° West 395 455 36,000  Level Albuquerque Center
03:22PM 35.8544 -101.9014 264° West 392 451 36,000  Level Albuquerque Center
03:23PM 35.8422 -102.0358 264° West 397 457 36,000  Level Albuquerque Center
03:24PM 35.8297 -102.1683 263° West 393 452 36,000  Level Albuquerque Center
03:25PM 35.8147 -102.3267 263° West 391 450 36,000  Level Albuquerque Center
03:26PM 35.8011 -102.4578 263° West 389 448 36,000  Level Albuquerque Center
03:27PM 35.7889 -102.5886 263° West 387 445 36,000  Level Albuquerque Center
03:28PM 35.7764 -102.7217 263° West 391 450 36,000  Level Albuquerque Center
03:29PM 35.7625 -102.8539 263° West 391 450 36,000  Level Albuquerque Center
03:30PM 35.7481 -103.0011 263° West 388 447 36,000  Level Albuquerque Center
03:31PM 35.7358 -103.1339 264° West 389 448 36,000  Level Albuquerque Center
03:32PM 35.7208 -103.2658 262° West 387 445 36,000  Level Albuquerque Center
03:33PM 35.7078 -103.3964 263° West 384 442 36,000  Level Albuquerque Center
03:34PM 35.6944 -103.5269 263° West 383 441 36,000  Level Albuquerque Center
03:35PM 35.6797 -103.6589 262° West 386 444 36,000  Level Albuquerque Center
03:36PM 35.6636 -103.8131 263° West 388 447 36,000  Level Albuquerque Center
03:37PM 35.6492 -103.9439 262° West 387 445 36,000  Level Albuquerque Center
03:38PM 35.6361 -104.0750 263° West 386 444 36,000  Level Albuquerque Center
03:39PM 35.6206 -104.2069 262° West 388 447 36,000  Level Albuquerque Center
03:40PM 35.6061 -104.3392 262° West 390 449 36,000  Level Albuquerque Center
03:41PM 35.5908 -104.4694 262° West 387 445 36,000  Level Albuquerque Center
03:42PM 35.5733 -104.6239 262° West 390 449 36,000  Level Albuquerque Center
03:43PM 35.5578 -104.7561 262° West 390 449 36,000  Level Albuquerque Center
03:44PM 35.5422 -104.8872 262° West 388 447 36,000  Level Albuquerque Center
03:45PM 35.5269 -105.0217 262° West 393 452 36,000  Level Albuquerque Center
03:46PM 35.5103 -105.1544 261° West 392 451 36,000  Level Albuquerque Center
03:47PM 35.4950 -105.2878 262° West 391 450 36,000  Level Albuquerque Center
03:48PM 35.4781 -105.4211 261° West 392 451 36,000  Level Albuquerque Center
03:49PM 35.4619 -105.5567 262° West 397 457 36,000  Level Albuquerque Center
03:50PM 35.4419 -105.7131 261° West 396 456 36,000  Level Albuquerque Center
03:51PM 35.4261 -105.8436 262° West 387 445 36,000  Level Albuquerque Center
03:52PM 35.4117 -105.9569 261° West 380 437 36,000  Level Albuquerque Center
03:53PM 35.3972 -106.0836 262° West 377 434 36,000  Level Albuquerque Center
03:55PM 35.3814 -106.2122 261° West 380 437 36,000  Level Albuquerque Center
03:56PM 35.3608 -106.3656 261° West 381 438 36,000  Level Albuquerque Center
03:57PM 35.3436 -106.4961 261° West 387 445 36,000  Level Albuquerque Center
03:58PM 35.3275 -106.6422 262° West 399 459 36,000  Level Albuquerque Center
03:59PM 35.3097 -106.7681 260° West 394 453 36,000  Level Albuquerque Center
04:00PM 35.2903 -106.8967 260° West 399 459 36,000  Level Albuquerque Center
04:01PM 35.2706 -107.0450 261° West 396 456 36,000  Level Albuquerque Center
04:02PM 35.2522 -107.1819 261° West 396 456 36,000  Level Albuquerque Center
04:03PM 35.2294 -107.3144 258° West 400 460 36,000  Level Albuquerque Center
04:04PM 35.2033 -107.4428 256° West 393 452 36,000 -540 Level Albuquerque Center
04:05PM 35.1733 -107.5886 256° West 389 448 34,900 -1,020 Descending Albuquerque Center
04:06PM 35.1519 -107.7119 258° West 387 445 34,000 -480 Descending Albuquerque Center
04:07PM 35.1272 -107.8383 257° West 395 455 34,000  Level Albuquerque Center
04:08PM 35.0972 -107.9867 256° West 400 460 34,000  Level Albuquerque Center
04:09PM 35.0714 -108.1133 256° West 400 460 34,000  Level Albuquerque Center
04:10PM 35.0425 -108.2578 256° West 395 455 34,000  Level Albuquerque Center
04:11PM 35.0181 -108.3822 257° West 393 452 34,000  Level Albuquerque Center
04:12PM 34.9889 -108.5281 256° West 395 455 34,000  Level Albuquerque Center
04:13PM 34.9633 -108.6508 256° West 392 451 34,000  Level Albuquerque Center
04:14PM 34.9381 -108.7736 256° West 390 449 34,000  Level Albuquerque Center
04:15PM 34.9086 -108.9169 256° West 389 448 34,000  Level Albuquerque Center
04:16PM 34.8839 -109.0397 256° West 390 449 34,000  Level Albuquerque Center
04:17PM 34.8542 -109.1814 256° West 387 445 34,000  Level Albuquerque Center
04:18PM 34.8281 -109.3036 255° West 389 448 34,000  Level Albuquerque Center
04:19PM 34.7978 -109.4478 256° West 392 451 34,000  Level Albuquerque Center
04:20PM 34.7703 -109.5694 255° West 391 450 34,000  Level Albuquerque Center
04:21PM 34.7442 -109.6917 255° West 390 449 34,000  Level Albuquerque Center
04:22PM 34.7133 -109.8342 255° West 391 450 34,000  Level Albuquerque Center
04:23PM 34.6725 -109.9531 247° West 398 458 34,000  Level Albuquerque Center
04:24PM 34.6222 -110.0864 245° Southwest 392 451 34,000  Level Albuquerque Center
04:25PM 34.5831 -110.2108 249° West 405 466 34,000  Level Albuquerque Center
04:26PM 34.5286 -110.3389 243° Southwest 390 449 34,000 -540 Level Albuquerque Center
04:27PM 34.4906 -110.4453 247° West 392 451 33,000 -1,440 Descending Albuquerque Center
04:28PM 34.4492 -110.5622 247° West 385 443 31,100 -2,160 Descending Albuquerque Center
04:30PM 34.3981 -110.6933 245° Southwest 365 420 28,600 -2,220 Descending Albuquerque Center
04:31PM 34.3508 -110.7989 242° Southwest 360 414 26,600 -1,980 Descending Albuquerque Center
04:32PM 34.2875 -110.8806 227° Southwest 338 389 24,600 -1,860 Descending Albuquerque Center
04:33PM 34.2267 -110.9600 227° Southwest 325 374 22,800 -1,800 Descending Albuquerque Center
04:34PM 34.1692 -111.0336 227° Southwest 310 357 21,000 -1,800 Descending Albuquerque Center
04:35PM 34.1150 -111.1061 228° Southwest 296 341 19,200 -1,800 Descending Albuquerque Center
04:36PM 34.0603 -111.1756 226° Southwest 289 333 17,400 -1,740 Descending Albuquerque Center
04:37PM 34.0072 -111.2436 227° Southwest 281 323 15,700 -1,860 Descending Albuquerque Center
04:38PM 33.9439 -111.3261 227° Southwest 278 320 13,700 -1,620 Descending Albuquerque Center
04:39PM 33.8872 -111.3983 227° Southwest 291 335 12,400 -1,320 Descending Albuquerque Center
04:40PM 33.8286 -111.4511 217° Southwest 263 303 11,000 -720 Descending Albuquerque Center
04:41PM 33.7711 -111.4994 215° Southwest 253 291 11,000 -480 Level Albuquerque Center
04:42PM 33.7156 -111.5478 216° Southwest 245 282 10,100 -1,140 Descending Albuquerque Center
04:43PM 33.6572 -111.5967 215° Southwest 253 291 8,700 -1,380 Descending Albuquerque Center
04:44PM 33.5978 -111.6481 216° Southwest 260 299 7,300 -1,380 Descending Albuquerque Center
04:45PM 33.5392 -111.6969 215° Southwest 257 296 5,900 -1,140 Descending Albuquerque Center
04:46PM 33.4828 -111.7439 215° Southwest 248 285 5,000 -840 Descending Albuquerque Center
04:47PM 33.4417 -111.8117 234° Southwest 204 235 4,200 -840 Descending Albuquerque Center
04:48PM 33.4408 -111.8778 269° West 196 226 3,400 -1,020 Descending Albuquerque Center
04:49PM 33.4406 -111.9308 270° West 165 190 2,100 -1,020 Descending Albuquerque Center
04:50PM 33.4400 -111.9875 269° West 153 176 1,300 -780 Descending Albuquerque Center
04:52PM 33.4343 -112.0116 270° West  Level Estimated
04:59PM 33.4343 -112.0116 90° East  Level Estimated